Aviation Digital Data Service (ADDS)

Output produced by METARs form (0826 UTC 01 March 2015)
found at http://aviationweather.gov/adds/metars/
 
KAEX 010525Z 0106/0206 09005KT P6SM SCT050 OVC080 
     TEMPO 0108/0112 3SM BR OVC025 
     FM011200 12005KT 6SM BR VCSH OVC025 
     TEMPO 0112/0116 2SM BR OVC008 
     FM011600 15007KT 3SM BR VCSH OVC025 
     PROB30 0118/0124 1SM +SHRA BKN008 OVC025